Time;durP1;ratioP1;P1;durP2;ratioP2;P2;SDS_P1;SDS_P2;PMS_P1;PMS_P2;Temp;Humidity;BMP_temperature;BMP_pressure;BME280_temperature;BME280_humidity;BME280_pressure;Samples;Min_cycle;Max_cycle;Signal;HPM_P1;HPM_P2
2021/05/26 00:00:11;;;;;;;3.13;1.33;;;;;;;11.15;60.43;100072.63;153908;1101;103167;-80
2021/05/26 00:03:15;;;;;;;2.75;1.53;;;;;;;11.12;60.62;100072.94;153980;1096;103220;-77
2021/05/26 00:06:18;;;;;;;3.20;1.43;;;;;;;11.06;60.25;100089.61;153962;1101;103110;-77
2021/05/26 00:09:22;;;;;;;2.65;1.50;;;;;;;11.00;60.54;100086.58;153964;1101;103390;-78
2021/05/26 00:12:25;;;;;;;3.13;1.80;;;;;;;10.96;60.37;100087.89;153979;1095;103139;-81
2021/05/26 00:15:29;;;;;;;2.35;1.60;;;;;;;10.92;60.11;100093.72;154113;1101;103141;-84
2021/05/26 00:18:33;;;;;;;3.37;1.60;;;;;;;10.89;60.33;100094.03;154093;1096;103139;-84
2021/05/26 00:21:37;;;;;;;3.67;1.80;;;;;;;10.84;61.05;100099.86;154069;1101;103139;-81
2021/05/26 00:24:41;;;;;;;2.93;1.93;;;;;;;10.77;60.40;100091.63;154089;1101;103209;-82
2021/05/26 00:27:46;;;;;;;5.33;2.80;;;;;;;10.72;60.74;100090.42;154131;1095;103144;-83
2021/05/26 00:30:51;;;;;;;4.05;2.40;;;;;;;10.67;60.61;100087.42;154130;1096;103224;-81
2021/05/26 00:33:55;;;;;;;4.38;2.30;;;;;;;10.59;60.65;100097.04;154076;1096;103186;-79
2021/05/26 00:36:58;;;;;;;2.43;1.60;;;;;;;10.58;60.92;100098.02;154031;1101;103136;-83
2021/05/26 00:40:02;;;;;;;3.35;1.75;;;;;;;10.61;61.02;100097.72;154101;1101;103553;-78
2021/05/26 00:43:06;;;;;;;3.70;1.90;;;;;;;10.62;60.59;100106.55;153971;1096;103228;-80
2021/05/26 00:46:10;;;;;;;3.77;1.80;;;;;;;10.63;61.13;100104.74;153968;1101;103223;-77
2021/05/26 00:49:14;;;;;;;3.30;1.70;;;;;;;10.60;61.00;100119.21;153940;1101;103139;-80
2021/05/26 00:52:18;;;;;;;2.97;1.87;;;;;;;10.58;60.98;100115.87;154080;1096;103144;-80
2021/05/26 00:55:23;;;;;;;4.73;1.90;;;;;;;10.55;60.95;100108.20;154006;1101;103292;-80
2021/05/26 00:58:26;;;;;;;4.03;1.93;;;;;;;10.48;61.16;100115.14;153985;1101;103139;-82
2021/05/26 01:01:30;;;;;;;3.13;2.00;;;;;;;10.42;61.18;100119.27;153940;1096;103221;-80
2021/05/26 01:04:35;;;;;;;2.88;1.70;;;;;;;10.36;61.05;100123.39;153928;1101;103136;-79
2021/05/26 01:07:47;;;;;;;4.70;1.90;;;;;;;10.30;61.56;100118.67;153980;1094;103198;-79
2021/05/26 01:10:51;;;;;;;3.97;2.07;;;;;;;10.23;61.03;100120.25;154075;1096;103314;-79
2021/05/26 01:14:01;;;;;;;4.03;2.10;;;;;;;10.17;61.09;100127.03;153989;1096;103128;-80
2021/05/26 01:17:05;;;;;;;3.40;1.70;;;;;;;10.11;61.43;100124.16;153950;1101;103132;-79
2021/05/26 01:20:13;;;;;;;4.20;1.70;;;;;;;10.06;61.58;100135.26;153953;1101;103224;-80
2021/05/26 01:23:18;;;;;;;3.67;1.90;;;;;;;10.02;61.55;100133.89;153978;1094;103139;-80
2021/05/26 01:26:30;;;;;;;3.75;1.80;;;;;;;9.94;61.50;100134.66;154097;1096;103225;-80
2021/05/26 01:29:34;;;;;;;4.47;2.37;;;;;;;9.89;61.64;100141.42;154034;1096;103107;-80
2021/05/26 01:32:44;;;;;;;5.53;3.30;;;;;;;9.79;61.75;100139.66;154195;1101;103176;-84
2021/05/26 01:35:48;;;;;;;3.20;2.00;;;;;;;9.78;61.87;100153.16;154132;1096;103200;-83
2021/05/26 01:38:52;;;;;;;3.83;2.27;;;;;;;9.82;61.66;100151.87;154099;1101;103152;-83
2021/05/26 01:41:56;;;;;;;5.13;3.40;;;;;;;9.83;61.95;100148.20;154097;1101;103197;-78
2021/05/26 01:45:00;;;;;;;4.48;2.45;;;;;;;9.83;62.30;100150.86;154035;1101;103196;-80
2021/05/26 01:48:09;;;;;;;6.60;2.80;;;;;;;9.78;62.23;100159.31;153952;1096;103227;-80
2021/05/26 01:51:14;;;;;;;5.70;3.03;;;;;;;9.74;61.93;100163.28;154022;1096;103211;-79
2021/05/26 01:54:19;;;;;;;4.43;2.27;;;;;;;9.70;62.54;100161.05;153983;1095;103221;-79
2021/05/26 01:57:24;;;;;;;3.67;2.27;;;;;;;9.63;62.29;100166.97;153982;1094;103260;-79
2021/05/26 02:00:27;;;;;;;4.97;2.77;;;;;;;9.58;62.23;100179.06;153974;1096;103230;-81
2021/05/26 02:03:31;;;;;;;4.98;2.85;;;;;;;9.50;61.99;100182.47;153986;1101;103242;-78
2021/05/26 02:06:35;;;;;;;3.63;2.67;;;;;;;9.42;62.55;100172.55;153946;1096;103221;-78
2021/05/26 02:09:40;;;;;;;4.48;2.40;;;;;;;9.40;62.23;100184.34;154020;1101;103135;-77
2021/05/26 02:12:46;;;;;;;3.60;2.70;;;;;;;9.34;62.69;100185.77;153993;1094;103247;-77
2021/05/26 02:15:51;;;;;;;3.40;1.90;;;;;;;9.30;62.39;100181.73;154091;1096;103228;-77
2021/05/26 02:18:56;;;;;;;3.75;2.13;;;;;;;9.32;62.32;100179.76;154058;1096;103123;-77
2021/05/26 02:22:00;;;;;;;5.23;1.83;;;;;;;9.33;62.46;100185.91;153960;1096;103188;-80
2021/05/26 02:25:10;;;;;;;4.30;2.00;;;;;;;9.36;62.56;100185.63;154023;1101;103222;-78
2021/05/26 02:28:14;;;;;;;3.37;1.80;;;;;;;9.39;62.63;100194.17;154089;1101;103208;-81
2021/05/26 02:31:18;;;;;;;3.90;2.17;;;;;;;9.39;62.28;100191.50;154072;1101;103216;-82
2021/05/26 02:34:21;;;;;;;4.20;2.08;;;;;;;9.38;62.79;100196.97;153922;1101;103241;-78
2021/05/26 02:37:26;;;;;;;3.85;1.88;;;;;;;9.33;62.82;100205.38;153998;1101;103131;-81
2021/05/26 02:40:33;;;;;;;2.50;1.90;;;;;;;9.31;62.44;100202.03;154519;1101;103243;-77
2021/05/26 02:43:38;;;;;;;2.53;1.58;;;;;;;9.31;62.59;100195.88;154428;1101;103248;-77
2021/05/26 02:46:42;;;;;;;2.80;1.73;;;;;;;9.27;63.07;100195.33;154493;1096;103240;-78
2021/05/26 02:49:46;;;;;;;2.53;1.70;;;;;;;9.23;62.63;100207.25;154570;1101;103194;-78
2021/05/26 02:52:51;;;;;;;2.80;1.90;;;;;;;9.22;62.89;100200.27;153960;1101;103576;-76
2021/05/26 02:55:55;;;;;;;2.25;1.55;;;;;;;9.20;63.01;100196.91;154402;1101;103244;-79
2021/05/26 02:59:14;;;;;;;3.23;1.80;;;;;;;9.20;62.82;100199.58;154327;1101;103149;-79
2021/05/26 03:02:37;;;;;;;2.60;1.50;;;;;;;9.22;62.87;100208.25;154097;1101;103128;-78
2021/05/26 03:05:45;;;;;;;2.27;1.50;;;;;;;9.28;63.07;100206.83;153979;1096;103548;-78
2021/05/26 03:08:49;;;;;;;2.67;1.40;;;;;;;9.34;63.15;100209.73;154010;1101;103139;-79
2021/05/26 03:11:55;;;;;;;2.77;1.57;;;;;;;9.40;62.84;100209.14;153974;1095;103119;-80
2021/05/26 03:15:09;;;;;;;2.10;1.70;;;;;;;9.44;62.94;100210.53;154140;1096;103221;-83
2021/05/26 03:18:13;;;;;;;6.40;2.50;;;;;;;9.52;63.32;100211.63;153986;1096;103240;-81
2021/05/26 03:21:18;;;;;;;5.90;3.43;;;;;;;9.58;62.88;100211.89;154007;1101;103126;-79
2021/05/26 03:24:50;;;;;;;3.28;2.30;;;;;;;9.73;63.17;100206.88;154019;1101;103218;-81
2021/05/26 03:27:54;;;;;;;2.77;1.80;;;;;;;9.89;62.80;100208.05;154100;1096;103128;-80
2021/05/26 03:30:58;;;;;;;2.45;1.55;;;;;;;10.08;63.10;100207.92;153993;1096;103133;-80
2021/05/26 03:34:02;;;;;;;2.25;1.38;;;;;;;10.29;62.54;100207.63;153995;1101;103214;-82
2021/05/26 03:37:06;;;;;;;2.03;1.40;;;;;;;10.44;62.51;100202.64;154132;1096;103141;-81
2021/05/26 03:40:13;;;;;;;3.43;1.45;;;;;;;10.61;62.33;100209.78;154029;1096;103214;-80
2021/05/26 03:43:19;;;;;;;2.47;1.30;;;;;;;10.85;62.74;100204.78;154040;1095;103224;-80
2021/05/26 03:46:24;;;;;;;1.60;1.10;;;;;;;10.98;62.30;100206.04;153935;1096;103282;-80
2021/05/26 03:49:29;;;;;;;1.77;1.23;;;;;;;11.14;62.38;100204.47;154121;1096;103174;-83
2021/05/26 03:52:33;;;;;;;1.77;1.20;;;;;;;11.38;62.62;100201.11;154042;1101;103222;-81
2021/05/26 03:55:37;;;;;;;1.70;1.20;;;;;;;11.65;61.67;100205.39;154135;1101;103208;-80
2021/05/26 03:59:00;;;;;;;2.30;1.38;;;;;;;11.94;61.41;100204.18;154086;1096;103131;-82
2021/05/26 04:02:08;;;;;;;2.00;1.40;;;;;;;12.16;61.35;100200.03;154049;1096;103297;-80
2021/05/26 04:05:12;;;;;;;2.60;1.33;;;;;;;12.35;61.47;100204.24;154147;1096;103250;-80
2021/05/26 04:08:16;;;;;;;5.10;1.35;;;;;;;12.50;61.26;100207.93;154110;1101;103544;-79
2021/05/26 04:11:20;;;;;;;2.73;1.10;;;;;;;12.59;60.67;100208.78;153885;1101;103146;-81
2021/05/26 04:14:42;;;;;;;2.23;1.30;;;;;;;12.75;60.73;100203.41;153996;1101;103118;-81
2021/05/26 04:17:51;;;;;;;1.50;1.30;;;;;;;12.85;60.42;100213.11;154031;1101;103247;-81
2021/05/26 04:21:02;;;;;;;1.50;1.13;;;;;;;12.92;60.15;100217.63;154064;1095;103131;-81
2021/05/26 04:24:08;;;;;;;2.50;1.10;;;;;;;13.07;60.85;100217.78;153977;1101;103249;-80
2021/05/26 04:27:12;;;;;;;2.50;1.20;;;;;;;13.24;60.36;100223.95;154008;1101;103561;-80
2021/05/26 04:30:17;;;;;;;1.63;1.00;;;;;;;13.34;59.90;100213.06;154030;1096;103144;-78
2021/05/26 04:33:21;;;;;;;1.98;1.25;;;;;;;13.45;59.06;100212.70;154008;1096;103679;-80
2021/05/26 04:36:25;;;;;;;1.80;1.27;;;;;;;13.49;59.58;100218.52;154065;1094;103360;-80
2021/05/26 04:39:28;;;;;;;6.45;2.30;;;;;;;13.58;59.44;100212.13;153972;1096;103199;-80
2021/05/26 04:42:33;;;;;;;2.80;1.30;;;;;;;13.68;58.90;100212.77;153942;1096;103139;-80
2021/05/26 04:45:36;;;;;;;2.30;1.20;;;;;;;13.78;59.19;100212.56;153971;1096;103615;-80
2021/05/26 04:48:40;;;;;;;3.58;2.00;;;;;;;13.84;59.00;100219.89;153948;1101;103279;-78
2021/05/26 04:51:43;;;;;;;2.30;1.63;;;;;;;13.92;58.63;100216.34;154010;1101;103275;-80
2021/05/26 04:54:47;;;;;;;2.00;1.20;;;;;;;13.92;58.41;100197.56;154075;1101;103557;-79
2021/05/26 04:57:59;;;;;;;2.13;1.47;;;;;;;14.00;58.94;100204.73;154078;1101;103530;-77
2021/05/26 05:01:03;;;;;;;2.75;1.60;;;;;;;14.09;58.66;100203.67;154006;1096;103135;-79
2021/05/26 05:04:06;;;;;;;2.10;1.40;;;;;;;14.21;58.75;100206.78;153922;1101;103237;-77
2021/05/26 05:07:10;;;;;;;2.50;1.20;;;;;;;14.42;58.47;100206.95;153972;1096;103219;-77
2021/05/26 05:10:15;;;;;;;1.73;1.10;;;;;;;14.63;58.26;100211.69;154025;1096;103139;-76
2021/05/26 05:13:18;;;;;;;2.53;1.30;;;;;;;14.81;58.16;100215.91;153973;1096;103158;-78
2021/05/26 05:16:22;;;;;;;2.75;1.00;;;;;;;14.87;57.87;100213.31;153966;1096;103125;-79
2021/05/26 05:19:25;;;;;;;4.58;3.23;;;;;;;14.83;57.89;100206.64;154098;1096;103787;-78
2021/05/26 05:22:29;;;;;;;2.07;1.43;;;;;;;14.85;57.34;100217.20;154259;1101;103227;-81
2021/05/26 05:25:33;;;;;;;2.03;1.30;;;;;;;14.83;57.12;100206.64;154306;1096;103100;-78
2021/05/26 05:28:37;;;;;;;1.57;1.10;;;;;;;14.81;57.31;100213.22;154087;1094;103219;-78
2021/05/26 05:31:40;;;;;;;1.65;1.13;;;;;;;14.91;57.43;100208.41;153977;1101;103232;-78
2021/05/26 05:34:44;;;;;;;3.83;1.20;;;;;;;15.01;56.44;100202.77;153937;1096;103219;-80
2021/05/26 05:37:47;;;;;;;3.23;1.20;;;;;;;15.22;56.74;100204.74;153976;1095;103243;-79
2021/05/26 05:40:51;;;;;;;1.60;1.15;;;;;;;15.24;56.68;100205.39;154234;1101;103310;-79
2021/05/26 05:43:54;;;;;;;2.80;1.20;;;;;;;15.20;55.72;100194.17;154006;1096;103190;-80
2021/05/26 05:46:58;;;;;;;2.75;1.85;;;;;;;15.27;56.35;100205.03;154016;1096;103482;-80
2021/05/26 05:50:02;;;;;;;1.90;1.33;;;;;;;15.27;56.32;100203.17;154153;1101;103261;-80
2021/05/26 05:53:05;;;;;;;1.90;1.30;;;;;;;15.19;56.27;100208.64;154112;1096;103128;-79
2021/05/26 05:56:09;;;;;;;1.80;1.30;;;;;;;15.18;55.87;100206.13;154153;1095;103123;-79
2021/05/26 05:59:12;;;;;;;1.43;1.00;;;;;;;15.10;54.71;100201.67;154111;1096;103308;-80
2021/05/26 06:02:16;;;;;;;1.80;0.90;;;;;;;15.05;55.50;100196.01;154445;1096;103219;-78
2021/05/26 06:05:20;;;;;;;2.00;1.00;;;;;;;15.07;55.84;100207.44;154127;1096;103277;-78
2021/05/26 06:08:24;;;;;;;2.60;0.90;;;;;;;15.17;55.77;100202.62;154108;1096;103141;-83
2021/05/26 06:11:28;;;;;;;2.35;1.10;;;;;;;15.40;55.84;100201.70;154182;1096;103136;-80
2021/05/26 06:14:32;;;;;;;1.80;1.30;;;;;;;15.67;56.05;100213.64;154068;1101;103126;-80
2021/05/26 06:17:36;;;;;;;2.33;1.30;;;;;;;15.89;54.57;100215.38;154335;1096;103214;-84
2021/05/26 06:20:39;;;;;;;2.43;1.50;;;;;;;15.98;54.85;100216.11;154193;1101;103275;-79
2021/05/26 06:23:43;;;;;;;3.13;1.70;;;;;;;15.92;54.87;100206.12;154073;1101;103222;-80
2021/05/26 06:26:47;;;;;;;2.33;1.50;;;;;;;15.82;55.19;100203.73;154184;1101;103250;-82
2021/05/26 06:29:50;;;;;;;2.43;1.60;;;;;;;15.74;54.85;100206.50;154207;1101;103160;-78
2021/05/26 06:32:54;;;;;;;2.80;1.50;;;;;;;15.64;55.31;100208.63;154217;1096;103217;-75
2021/05/26 06:35:57;;;;;;;3.05;1.60;;;;;;;15.54;54.75;100203.53;154079;1101;103260;-75
2021/05/26 06:39:01;;;;;;;3.90;1.63;;;;;;;15.42;54.64;100205.87;154100;1096;103222;-79
2021/05/26 06:42:06;;;;;;;2.20;1.30;;;;;;;15.37;54.88;100208.27;154083;1096;103308;-76
2021/05/26 06:45:11;;;;;;;4.20;1.33;;;;;;;15.37;54.73;100208.27;154103;1101;103213;-76
2021/05/26 06:48:15;;;;;;;2.47;1.47;;;;;;;15.35;53.97;100214.86;154165;1095;103206;-77
2021/05/26 06:51:19;;;;;;;4.10;1.20;;;;;;;15.34;54.54;100214.03;154071;1101;103292;-74
2021/05/26 06:54:22;;;;;;;2.50;1.33;;;;;;;15.40;54.49;100207.08;154138;1096;103128;-78
2021/05/26 06:57:26;;;;;;;2.77;1.30;;;;;;;15.39;54.54;100229.59;154081;1101;103139;-79
2021/05/26 07:00:30;;;;;;;2.55;1.35;;;;;;;15.39;54.55;100216.16;154097;1101;103139;-78
2021/05/26 07:03:34;;;;;;;3.03;1.17;;;;;;;15.45;54.67;100228.85;154162;1101;103249;-78
2021/05/26 07:06:38;;;;;;;3.50;1.30;;;;;;;15.51;53.93;100231.65;154030;1101;103240;-76
2021/05/26 07:09:41;;;;;;;2.75;1.15;;;;;;;15.59;54.14;100217.27;154085;1101;103106;-77
2021/05/26 07:12:46;;;;;;;2.65;1.10;;;;;;;15.78;53.93;100221.27;154080;1101;103122;-76
2021/05/26 07:15:49;;;;;;;2.97;1.17;;;;;;;15.88;53.10;100226.36;154112;1096;103214;-77
2021/05/26 07:18:57;;;;;;;3.87;1.30;;;;;;;15.92;53.00;100222.27;154149;1101;103227;-77
2021/05/26 07:22:01;;;;;;;2.88;1.35;;;;;;;16.12;53.03;100217.09;154016;1101;103190;-76
2021/05/26 07:25:05;;;;;;;2.00;0.90;;;;;;;16.25;53.49;100217.23;154064;1101;103258;-76
2021/05/26 07:28:09;;;;;;;1.90;1.00;;;;;;;16.32;52.88;100217.33;154031;1096;103102;-79
2021/05/26 07:31:13;;;;;;;1.80;1.10;;;;;;;16.59;53.40;100217.55;154111;1101;103221;-75
2021/05/26 07:34:16;;;;;;;3.60;1.33;;;;;;;16.84;53.03;100213.47;155345;1096;103150;-77
2021/05/26 07:37:20;;;;;;;3.43;1.13;;;;;;;16.94;52.39;100201.52;154072;1096;103292;-78
2021/05/26 07:40:23;;;;;;;2.60;1.10;;;;;;;17.00;52.00;100214.20;154134;1101;103489;-76
2021/05/26 07:43:29;;;;;;;3.30;1.10;;;;;;;16.96;50.27;100212.94;154066;1101;103198;-76
2021/05/26 07:46:32;;;;;;;3.30;0.95;;;;;;;17.00;50.63;100208.81;154035;1101;103144;-81
2021/05/26 07:49:36;;;;;;;2.97;1.00;;;;;;;16.93;52.25;100213.31;154045;1096;103099;-75
2021/05/26 07:52:39;;;;;;;2.70;1.27;;;;;;;16.93;51.84;100205.23;154119;1101;103171;-78
2021/05/26 07:55:43;;;;;;;2.58;1.20;;;;;;;17.00;51.68;100209.64;154049;1095;103189;-80
2021/05/26 07:58:46;;;;;;;2.38;1.08;;;;;;;17.06;51.89;100213.42;154428;1096;103132;-79
2021/05/26 08:01:50;;;;;;;2.20;1.20;;;;;;;17.22;51.76;100207.70;154113;1101;103710;-78
2021/05/26 08:04:53;;;;;;;3.63;1.43;;;;;;;17.34;51.51;100209.84;154127;1096;103224;-78
2021/05/26 08:07:57;;;;;;;3.43;1.40;;;;;;;17.42;51.29;100201.63;154125;1101;103137;-77
2021/05/26 08:11:01;;;;;;;2.50;1.30;;;;;;;17.51;51.04;100186.09;154026;1101;103128;-79
2021/05/26 08:14:05;;;;;;;1.60;0.93;;;;;;;17.69;51.59;100196.33;154030;1101;103126;-77
2021/05/26 08:17:09;;;;;;;4.60;1.10;;;;;;;18.05;50.61;100191.53;154085;1101;103187;-80
2021/05/26 08:20:14;;;;;;;1.47;1.03;;;;;;;18.42;50.66;100183.08;154083;1101;103104;-79
2021/05/26 08:23:18;;;;;;;2.50;1.00;;;;;;;18.68;50.08;100190.34;154112;1101;103251;-78
2021/05/26 08:26:22;;;;;;;2.13;1.00;;;;;;;18.82;49.02;100193.91;154140;1101;103233;-79
2021/05/26 08:29:26;;;;;;;2.35;1.23;;;;;;;18.77;48.88;100183.70;154148;1101;103196;-77
2021/05/26 08:32:30;;;;;;;3.03;1.07;;;;;;;18.88;48.00;100184.13;154005;1096;103228;-76
2021/05/26 08:35:34;;;;;;;1.63;0.83;;;;;;;19.08;48.82;100195.77;154857;1101;103104;-77
2021/05/26 08:38:38;;;;;;;2.50;0.90;;;;;;;19.13;48.70;100182.45;154300;1096;103110;-78
2021/05/26 08:41:44;;;;;;;3.83;1.10;;;;;;;19.17;48.09;100188.27;154401;1096;103124;-76
2021/05/26 08:44:48;;;;;;;2.00;0.80;;;;;;;19.32;48.77;100185.30;154099;1101;103127;-80
2021/05/26 08:47:54;;;;;;;1.58;0.80;;;;;;;19.18;47.02;100177.22;154027;1101;103124;-79
2021/05/26 08:50:58;;;;;;;2.30;0.87;;;;;;;19.09;45.56;100173.10;154176;1096;103119;-81
2021/05/26 08:54:02;;;;;;;3.23;0.80;;;;;;;18.93;46.91;100173.53;154213;1101;103285;-79
2021/05/26 08:57:06;;;;;;;2.13;0.90;;;;;;;18.87;46.94;100172.49;154029;1101;103243;-80
2021/05/26 09:00:12;;;;;;;3.27;0.97;;;;;;;18.97;46.97;100182.88;154052;1096;103303;-79
2021/05/26 09:03:15;;;;;;;1.90;0.90;;;;;;;18.96;46.49;100183.94;154071;1101;103477;-81
2021/05/26 09:06:19;;;;;;;2.23;1.03;;;;;;;18.93;45.64;100173.53;154041;1101;103138;-81
2021/05/26 09:09:22;;;;;;;3.37;0.90;;;;;;;19.09;46.24;100167.69;154008;1101;103649;-79
2021/05/26 09:12:31;;;;;;;2.77;0.90;;;;;;;19.28;45.96;100168.66;154066;1101;103170;-81
2021/05/26 09:15:40;;;;;;;2.27;0.80;;;;;;;19.38;46.48;100179.03;154266;1096;103185;-81
2021/05/26 09:18:58;;;;;;;3.70;1.23;;;;;;;19.31;45.68;100180.95;154066;1096;103165;-76
2021/05/26 09:22:10;;;;;;;2.03;1.30;;;;;;;19.22;45.97;100178.45;154418;1101;103099;-77
2021/05/26 09:25:15;;;;;;;2.30;0.90;;;;;;;19.12;45.01;100169.13;154144;1101;103259;-77
2021/05/26 09:28:21;;;;;;;2.60;0.93;;;;;;;19.07;45.45;100172.45;154173;1101;103250;-77
2021/05/26 09:31:30;;;;;;;2.70;1.33;;;;;;;19.06;45.08;100173.51;154201;1096;103142;-81
2021/05/26 09:34:38;;;;;;;4.85;0.90;;;;;;;19.16;45.72;100168.48;154059;1096;103224;-80
2021/05/26 09:37:43;;;;;;;4.07;1.30;;;;;;;19.43;45.80;100171.95;154265;1096;103115;-77
2021/05/26 09:40:47;;;;;;;1.60;0.90;;;;;;;19.64;45.48;100166.47;154213;1096;103594;-83
2021/05/26 09:43:52;;;;;;;2.90;0.80;;;;;;;19.60;43.95;100156.06;154174;1096;103107;-79
2021/05/26 09:46:56;;;;;;;3.67;1.30;;;;;;;19.66;44.06;100145.44;154063;1096;103136;-78
2021/05/26 09:50:16;;;;;;;2.23;0.77;;;;;;;19.81;45.46;100144.13;154084;1096;103227;-79
2021/05/26 09:53:23;;;;;;;3.65;0.90;;;;;;;20.00;44.56;100138.83;154242;1101;103121;-79
2021/05/26 09:56:28;;;;;;;2.73;0.80;;;;;;;20.03;44.00;100142.97;154082;1101;103272;-83
2021/05/26 09:59:33;;;;;;;3.00;0.73;;;;;;;19.73;43.92;100143.56;154313;1101;103132;-85
2021/05/26 10:02:36;;;;;;;2.67;0.90;;;;;;;19.58;43.97;100141.92;154239;1101;103190;-81
2021/05/26 10:05:40;;;;;;;2.13;0.90;;;;;;;19.40;43.14;100131.80;154294;1101;103220;-78
2021/05/26 10:09:04;;;;;;;3.00;1.10;;;;;;;19.44;44.04;100129.50;154165;1095;103187;-79
2021/05/26 10:12:16;;;;;;;4.70;1.10;;;;;;;19.57;43.32;100131.30;154162;1095;103217;-77
2021/05/26 10:15:22;;;;;;;3.45;0.90;;;;;;;19.54;42.76;100127.16;154260;1101;103216;-79
2021/05/26 10:18:26;;;;;;;2.83;1.18;;;;;;;19.48;42.58;100124.50;154195;1101;103123;-79
2021/05/26 10:21:32;;;;;;;2.35;0.90;;;;;;;19.62;42.58;100126.08;154096;1096;103106;-78
2021/05/26 10:24:35;;;;;;;2.27;0.83;;;;;;;19.70;43.15;100123.12;154619;1096;103221;-78
2021/05/26 10:27:44;;;;;;;2.37;0.90;;;;;;;19.96;42.98;100126.77;154560;1101;103270;-77
2021/05/26 10:30:49;;;;;;;2.83;0.73;;;;;;;20.20;42.71;100112.41;154288;1101;103136;-83
2021/05/26 10:33:54;;;;;;;1.50;0.63;;;;;;;20.48;42.10;100108.45;154254;1096;103250;-80
2021/05/26 10:37:05;;;;;;;3.23;1.00;;;;;;;20.43;41.51;100102.04;154235;1094;103139;-81
2021/05/26 10:40:35;;;;;;;13.50;1.43;;;;;;;20.27;41.94;100109.66;154471;1096;103104;-81
2021/05/26 10:43:39;;;;;;;1.50;0.60;;;;;;;20.25;42.51;100109.06;154485;1095;103128;-83
2021/05/26 10:46:45;;;;;;;2.17;0.80;;;;;;;20.44;42.50;100107.24;154439;1101;103124;-79
2021/05/26 10:49:52;;;;;;;2.48;0.73;;;;;;;20.58;42.04;100103.34;154431;1096;103129;-79
2021/05/26 10:53:15;;;;;;;3.43;0.70;;;;;;;20.66;41.35;100093.31;154074;1095;103127;-80
2021/05/26 10:56:40;;;;;;;4.67;0.80;;;;;;;20.74;41.64;100082.98;154139;1096;103470;-82
2021/05/26 11:00:24;;;;;;;4.30;1.30;;;;;;;20.71;41.59;100090.77;154138;1101;103196;-83
2021/05/26 11:03:36;;;;;;;5.07;1.00;;;;;;;20.64;41.19;100085.39;154303;1101;103141;-81
2021/05/26 11:06:40;;;;;;;6.17;1.47;;;;;;;20.77;40.45;100087.98;154123;1094;103123;-76
2021/05/26 11:09:58;;;;;;;3.57;1.00;;;;;;;20.73;40.68;100092.19;154003;1101;103224;-75
2021/05/26 11:13:01;;;;;;;3.77;0.97;;;;;;;20.68;40.96;100075.76;154105;1096;103224;-75
2021/05/26 11:16:05;;;;;;;4.37;1.00;;;;;;;20.73;40.77;100089.48;153998;1096;103279;-75
2021/05/26 11:19:11;;;;;;;3.25;0.80;;;;;;;20.80;39.50;100078.55;154308;1096;103132;-76
2021/05/26 11:22:16;;;;;;;3.10;0.80;;;;;;;20.77;39.88;100087.98;154065;1096;103139;-80
2021/05/26 11:25:19;;;;;;;2.57;1.10;;;;;;;20.84;40.46;100077.05;154123;1101;103104;-75
2021/05/26 11:28:31;;;;;;;3.97;1.40;;;;;;;20.94;39.97;100076.55;154128;1101;103143;-73
2021/05/26 11:31:35;;;;;;;2.90;0.80;;;;;;;20.82;40.50;100086.47;154319;1101;103169;-73
2021/05/26 11:34:40;;;;;;;3.55;0.90;;;;;;;20.52;40.04;100081.73;154138;1101;103099;-73
2021/05/26 11:37:44;;;;;;;10.55;1.93;;;;;;;20.47;40.03;100070.73;154197;1096;103131;-73
2021/05/26 11:40:47;;;;;;;5.83;1.10;;;;;;;20.49;40.18;100065.91;154079;1096;103190;-72
2021/05/26 11:43:51;;;;;;;3.40;0.80;;;;;;;20.50;39.60;100062.16;154138;1101;103141;-74
2021/05/26 11:46:55;;;;;;;2.00;0.73;;;;;;;20.50;38.73;100064.88;154109;1101;103168;-73
2021/05/26 11:49:58;;;;;;;2.95;0.90;;;;;;;20.54;40.09;100052.53;154004;1096;103110;-73
2021/05/26 11:53:18;;;;;;;5.55;0.90;;;;;;;20.64;39.79;100058.28;154066;1096;103126;-73
2021/05/26 11:56:23;;;;;;;4.65;1.10;;;;;;;20.62;39.30;100057.69;154008;1096;103198;-73
2021/05/26 11:59:28;;;;;;;3.17;0.90;;;;;;;20.37;39.60;100052.27;154037;1095;103104;-74
2021/05/26 12:02:32;;;;;;;4.43;0.90;;;;;;;20.32;39.21;100039.39;154057;1101;103275;-74
2021/05/26 12:05:40;;;;;;;3.50;1.05;;;;;;;20.37;39.65;100042.24;154059;1101;103221;-75
2021/05/26 12:08:45;;;;;;;2.80;0.73;;;;;;;20.48;39.57;100037.98;154054;1096;103099;-73
2021/05/26 12:11:48;;;;;;;4.25;0.80;;;;;;;20.54;38.29;100033.55;154079;1101;103097;-73
2021/05/26 12:14:53;;;;;;;5.67;0.90;;;;;;;20.67;38.16;100043.44;154049;1101;103195;-75
2021/05/26 12:17:58;;;;;;;2.80;0.80;;;;;;;20.75;37.47;100033.14;154232;1101;103487;-73
2021/05/26 12:21:03;;;;;;;3.83;1.00;;;;;;;20.74;38.09;100033.36;154163;1101;103083;-71
2021/05/26 12:24:08;;;;;;;6.67;1.03;;;;;;;20.63;37.60;100034.10;154135;1095;103158;-68
2021/05/26 12:27:11;;;;;;;3.83;0.80;;;;;;;20.58;38.05;100027.45;153937;1101;103221;-72
2021/05/26 12:30:22;;;;;;;3.03;0.80;;;;;;;20.65;36.84;100030.14;153931;1101;103161;-73
2021/05/26 12:33:26;;;;;;;2.60;0.70;;;;;;;20.97;37.48;100025.37;154190;1101;103120;-72
2021/05/26 12:36:31;;;;;;;1.78;0.70;;;;;;;21.23;37.23;100028.82;154112;1101;103219;-73
2021/05/26 12:39:43;;;;;;;4.95;0.90;;;;;;;21.30;36.06;100017.86;154137;1101;103118;-73
2021/05/26 12:42:48;;;;;;;1.30;0.60;;;;;;;21.49;37.29;100024.93;154020;1101;104131;-74
2021/05/26 12:45:52;;;;;;;2.95;0.90;;;;;;;21.61;37.63;100019.53;154053;1096;104652;-74
2021/05/26 12:48:55;;;;;;;2.73;0.60;;;;;;;21.75;37.47;100009.33;154061;1096;103547;-72
2021/05/26 12:52:00;;;;;;;2.43;0.65;;;;;;;21.96;36.72;100007.95;154001;1101;103225;-69
2021/05/26 12:55:08;;;;;;;1.80;0.83;;;;;;;22.02;36.48;99998.00;153957;1096;103142;-71
2021/05/26 12:58:15;;;;;;;2.40;0.80;;;;;;;21.70;35.98;99999.14;154109;1096;103195;-71
2021/05/26 13:01:18;;;;;;;3.45;0.78;;;;;;;21.37;36.31;100014.00;154284;1096;103219;-72
2021/05/26 13:04:26;;;;;;;1.38;0.83;;;;;;;21.27;36.46;100012.91;154059;1095;103253;-71
2021/05/26 13:07:31;;;;;;;2.37;1.30;;;;;;;21.09;36.39;100017.28;154135;1101;103190;-72
2021/05/26 13:10:35;;;;;;;3.10;1.23;;;;;;;20.93;35.87;100017.92;154096;1100;103222;-72
2021/05/26 13:13:48;;;;;;;1.85;1.00;;;;;;;20.83;36.11;100006.79;154131;1095;103205;-73
2021/05/26 13:16:51;;;;;;;2.43;0.83;;;;;;;20.83;35.84;100004.90;154131;1101;103139;-72
2021/05/26 13:19:55;;;;;;;2.87;0.83;;;;;;;20.86;35.69;100007.17;154084;1096;103233;-76
2021/05/26 13:23:01;;;;;;;2.23;1.20;;;;;;;20.91;36.37;100009.19;154224;1094;103131;-72
2021/05/26 13:26:06;;;;;;;3.87;1.20;;;;;;;20.87;35.82;100002.56;154050;1096;103148;-78
2021/05/26 13:29:10;;;;;;;1.33;0.80;;;;;;;20.93;36.54;99994.33;154097;1096;103147;-78
2021/05/26 13:32:13;;;;;;;3.73;0.90;;;;;;;20.93;36.17;100002.47;154210;1101;103253;-73
2021/05/26 13:35:17;;;;;;;3.50;0.93;;;;;;;20.92;36.44;99997.27;154072;1101;103139;-78
2021/05/26 13:38:21;;;;;;;1.40;0.70;;;;;;;20.81;36.37;99996.16;154136;1101;103187;-71
2021/05/26 13:41:24;;;;;;;1.50;0.70;;;;;;;20.75;36.29;99994.36;154093;1101;103244;-74
2021/05/26 13:44:28;;;;;;;3.43;0.90;;;;;;;20.68;35.99;99990.89;154125;1101;103104;-75
2021/05/26 13:47:32;;;;;;;4.40;0.70;;;;;;;20.71;36.18;99987.73;154127;1096;103484;-75
2021/05/26 13:50:38;;;;;;;2.75;0.85;;;;;;;20.82;36.45;99988.84;154095;1096;103276;-75
2021/05/26 13:53:42;;;;;;;1.90;0.75;;;;;;;20.91;36.52;99995.63;154157;1101;103220;-77
2021/05/26 13:56:46;;;;;;;1.90;0.70;;;;;;;20.87;35.67;99972.73;154126;1095;103139;-77
2021/05/26 13:59:49;;;;;;;2.70;0.70;;;;;;;20.92;35.73;99989.13;154167;1095;103102;-76
2021/05/26 14:02:54;;;;;;;2.55;0.60;;;;;;;20.98;35.99;99988.24;154063;1096;103218;-77
2021/05/26 14:05:57;;;;;;;1.77;0.53;;;;;;;21.10;35.91;99974.73;154145;1101;103287;-75